sensor_id;sensor_type;location;lat;lon;timestamp;P1;durP1;ratioP1;P2;durP2;ratioP2
33092;SDS011;19456;46.104;12.908;2022-07-15T09:58:31;2.92;;;1.15;;
33092;SDS011;19456;46.104;12.908;2022-07-15T10:00:56;3.15;;;1.25;;
33092;SDS011;19456;46.104;12.908;2022-07-15T10:03:31;6.18;;;1.42;;
33092;SDS011;19456;46.104;12.908;2022-07-15T10:05:58;3.60;;;1.10;;
33092;SDS011;19456;46.104;12.908;2022-07-15T10:08:25;1.50;;;1.10;;
33092;SDS011;19456;46.104;12.908;2022-07-15T10:10:54;2.95;;;1.50;;
33092;SDS011;19456;46.104;12.908;2022-07-15T10:21:48;3.50;;;1.40;;
33092;SDS011;19456;46.104;12.908;2022-07-15T10:24:26;2.73;;;1.00;;
33092;SDS011;19456;46.104;12.908;2022-07-15T10:30:11;4.88;;;1.40;;
33092;SDS011;19456;46.104;12.908;2022-07-15T10:41:08;6.15;;;1.10;;
33092;SDS011;19456;46.104;12.908;2022-07-15T10:48:42;2.80;;;1.00;;
33092;SDS011;19456;46.104;12.908;2022-07-15T10:51:09;2.15;;;0.88;;
33092;SDS011;19456;46.104;12.908;2022-07-15T10:53:47;3.55;;;0.88;;
33092;SDS011;19456;46.104;12.908;2022-07-15T10:56:26;1.38;;;1.02;;
33092;SDS011;19456;46.104;12.908;2022-07-15T11:01:35;2.70;;;1.00;;
33092;SDS011;19456;46.104;12.908;2022-07-15T11:04:17;2.45;;;1.20;;
33092;SDS011;19456;46.104;12.908;2022-07-15T11:35:31;1.38;;;1.10;;
33092;SDS011;19456;46.104;12.908;2022-07-15T11:38:12;3.63;;;1.13;;
33092;SDS011;19456;46.104;12.908;2022-07-15T11:40:42;4.15;;;0.98;;
33092;SDS011;19456;46.104;12.908;2022-07-15T11:43:29;2.97;;;1.08;;
33092;SDS011;19456;46.104;12.908;2022-07-15T11:46:14;4.38;;;1.02;;
33092;SDS011;19456;46.104;12.908;2022-07-15T11:48:40;1.70;;;0.90;;
33092;SDS011;19456;46.104;12.908;2022-07-15T11:51:09;2.95;;;1.00;;
33092;SDS011;19456;46.104;12.908;2022-07-15T11:53:37;9.18;;;1.23;;
33092;SDS011;19456;46.104;12.908;2022-07-15T11:56:04;1.48;;;1.05;;
33092;SDS011;19456;46.104;12.908;2022-07-15T12:01:04;2.08;;;1.20;;
33092;SDS011;19456;46.104;12.908;2022-07-15T12:03:34;2.63;;;1.10;;
33092;SDS011;19456;46.104;12.908;2022-07-15T12:06:21;3.58;;;1.15;;
33092;SDS011;19456;46.104;12.908;2022-07-15T12:09:06;2.13;;;1.17;;
33092;SDS011;19456;46.104;12.908;2022-07-15T12:11:36;2.17;;;1.23;;
33092;SDS011;19456;46.104;12.908;2022-07-15T12:14:07;4.72;;;1.02;;
33092;SDS011;19456;46.104;12.908;2022-07-15T12:16:37;3.63;;;1.40;;
33092;SDS011;19456;46.104;12.908;2022-07-15T12:21:54;3.80;;;1.20;;
33092;SDS011;19456;46.104;12.908;2022-07-15T12:27:09;4.88;;;1.40;;
33092;SDS011;19456;46.104;12.908;2022-07-15T12:29:37;4.82;;;1.27;;
33092;SDS011;19456;46.104;12.908;2022-07-15T12:32:14;2.70;;;1.50;;
33092;SDS011;19456;46.104;12.908;2022-07-15T12:37:24;4.38;;;1.20;;
33092;SDS011;19456;46.104;12.908;2022-07-15T12:40:11;3.90;;;1.20;;
33092;SDS011;19456;46.104;12.908;2022-07-15T12:42:46;2.50;;;1.23;;
33092;SDS011;19456;46.104;12.908;2022-07-15T13:00:24;4.70;;;1.20;;
33092;SDS011;19456;46.104;12.908;2022-07-15T13:12:57;3.40;;;1.30;;
33092;SDS011;19456;46.104;12.908;2022-07-15T13:28:29;3.88;;;1.45;;
33092;SDS011;19456;46.104;12.908;2022-07-15T13:30:54;3.75;;;1.30;;
33092;SDS011;19456;46.104;12.908;2022-07-15T13:33:20;1.70;;;1.27;;
33092;SDS011;19456;46.104;12.908;2022-07-15T13:35:48;4.88;;;1.45;;
33092;SDS011;19456;46.104;12.908;2022-07-15T13:38:13;4.03;;;1.42;;
33092;SDS011;19456;46.104;12.908;2022-07-15T13:40:40;4.00;;;1.15;;
33092;SDS011;19456;46.104;12.908;2022-07-15T13:43:06;2.05;;;1.35;;
33092;SDS011;19456;46.104;12.908;2022-07-15T16:24:17;4.50;;;1.80;;
33092;SDS011;19456;46.104;12.908;2022-07-15T16:26:43;6.38;;;2.25;;
33092;SDS011;19456;46.104;12.908;2022-07-15T16:29:08;8.13;;;2.10;;
33092;SDS011;19456;46.104;12.908;2022-07-15T16:31:34;6.70;;;1.60;;
33092;SDS011;19456;46.104;12.908;2022-07-15T16:34:00;5.90;;;1.63;;
33092;SDS011;19456;46.104;12.908;2022-07-15T16:36:25;7.75;;;1.48;;
33092;SDS011;19456;46.104;12.908;2022-07-15T16:38:51;4.07;;;1.70;;
33092;SDS011;19456;46.104;12.908;2022-07-15T16:41:17;3.00;;;1.60;;
33092;SDS011;19456;46.104;12.908;2022-07-15T16:43:42;4.57;;;2.00;;
33092;SDS011;19456;46.104;12.908;2022-07-15T16:46:08;6.15;;;1.70;;
33092;SDS011;19456;46.104;12.908;2022-07-15T16:48:35;5.55;;;1.80;;
33092;SDS011;19456;46.104;12.908;2022-07-15T16:51:02;17.48;;;3.10;;
33092;SDS011;19456;46.104;12.908;2022-07-15T16:53:28;23.55;;;2.97;;
33092;SDS011;19456;46.104;12.908;2022-07-15T16:55:53;9.20;;;1.80;;
33092;SDS011;19456;46.104;12.908;2022-07-15T16:58:19;3.35;;;1.50;;
33092;SDS011;19456;46.104;12.908;2022-07-15T17:00:45;2.00;;;1.67;;
33092;SDS011;19456;46.104;12.908;2022-07-15T17:03:10;4.22;;;2.28;;
33092;SDS011;19456;46.104;12.908;2022-07-15T17:05:36;6.68;;;1.75;;
33092;SDS011;19456;46.104;12.908;2022-07-15T17:08:02;4.18;;;2.65;;
33092;SDS011;19456;46.104;12.908;2022-07-15T17:10:29;8.77;;;3.03;;
33092;SDS011;19456;46.104;12.908;2022-07-15T17:12:55;4.75;;;4.00;;
33092;SDS011;19456;46.104;12.908;2022-07-15T17:15:21;8.52;;;4.75;;
33092;SDS011;19456;46.104;12.908;2022-07-15T17:17:46;11.10;;;6.18;;
33092;SDS011;19456;46.104;12.908;2022-07-15T17:20:13;8.00;;;5.10;;
33092;SDS011;19456;46.104;12.908;2022-07-15T17:22:39;8.07;;;5.13;;
33092;SDS011;19456;46.104;12.908;2022-07-15T17:25:05;6.10;;;5.10;;
33092;SDS011;19456;46.104;12.908;2022-07-15T17:27:31;8.52;;;5.00;;
33092;SDS011;19456;46.104;12.908;2022-07-15T17:29:57;10.70;;;5.18;;
33092;SDS011;19456;46.104;12.908;2022-07-15T17:32:23;7.75;;;5.80;;
33092;SDS011;19456;46.104;12.908;2022-07-15T17:34:48;10.65;;;5.80;;
33092;SDS011;19456;46.104;12.908;2022-07-15T17:37:14;9.38;;;5.88;;
33092;SDS011;19456;46.104;12.908;2022-07-15T17:39:40;7.35;;;6.10;;
33092;SDS011;19456;46.104;12.908;2022-07-15T17:42:05;9.85;;;5.88;;
33092;SDS011;19456;46.104;12.908;2022-07-15T17:44:31;6.38;;;5.78;;
33092;SDS011;19456;46.104;12.908;2022-07-15T17:46:57;15.15;;;5.90;;
33092;SDS011;19456;46.104;12.908;2022-07-15T17:49:22;6.78;;;5.95;;
33092;SDS011;19456;46.104;12.908;2022-07-15T17:51:48;9.65;;;6.00;;
33092;SDS011;19456;46.104;12.908;2022-07-15T17:54:14;11.35;;;6.03;;
33092;SDS011;19456;46.104;12.908;2022-07-15T17:56:39;10.82;;;6.57;;
33092;SDS011;19456;46.104;12.908;2022-07-15T17:59:05;9.02;;;5.70;;
33092;SDS011;19456;46.104;12.908;2022-07-15T18:01:30;7.50;;;5.72;;
33092;SDS011;19456;46.104;12.908;2022-07-15T18:03:56;10.93;;;5.80;;
33092;SDS011;19456;46.104;12.908;2022-07-15T18:06:22;6.18;;;5.07;;
33092;SDS011;19456;46.104;12.908;2022-07-15T18:08:47;9.45;;;5.28;;
33092;SDS011;19456;46.104;12.908;2022-07-15T18:11:14;6.00;;;4.55;;
33092;SDS011;19456;46.104;12.908;2022-07-15T18:13:40;14.77;;;5.30;;
33092;SDS011;19456;46.104;12.908;2022-07-15T18:16:06;11.10;;;4.50;;
33092;SDS011;19456;46.104;12.908;2022-07-15T18:18:32;8.25;;;4.22;;
33092;SDS011;19456;46.104;12.908;2022-07-15T18:20:58;7.35;;;4.40;;
33092;SDS011;19456;46.104;12.908;2022-07-15T18:23:24;7.72;;;3.83;;
33092;SDS011;19456;46.104;12.908;2022-07-15T18:25:50;9.35;;;3.88;;
33092;SDS011;19456;46.104;12.908;2022-07-15T18:28:15;7.50;;;3.67;;
33092;SDS011;19456;46.104;12.908;2022-07-15T18:30:41;5.75;;;4.00;;
33092;SDS011;19456;46.104;12.908;2022-07-15T18:33:10;8.52;;;4.07;;
33092;SDS011;19456;46.104;12.908;2022-07-15T18:35:36;10.38;;;4.35;;
33092;SDS011;19456;46.104;12.908;2022-07-15T18:38:02;8.73;;;3.47;;
33092;SDS011;19456;46.104;12.908;2022-07-15T18:40:28;11.30;;;4.85;;
33092;SDS011;19456;46.104;12.908;2022-07-15T18:42:53;8.82;;;4.65;;
33092;SDS011;19456;46.104;12.908;2022-07-15T18:45:19;10.63;;;4.40;;
33092;SDS011;19456;46.104;12.908;2022-07-15T18:47:45;9.32;;;3.78;;
33092;SDS011;19456;46.104;12.908;2022-07-15T18:50:10;10.82;;;4.10;;
33092;SDS011;19456;46.104;12.908;2022-07-15T18:52:36;7.82;;;3.50;;
33092;SDS011;19456;46.104;12.908;2022-07-15T18:55:02;8.75;;;4.50;;
33092;SDS011;19456;46.104;12.908;2022-07-15T18:57:28;5.90;;;3.95;;
33092;SDS011;19456;46.104;12.908;2022-07-15T18:59:54;6.03;;;4.07;;
33092;SDS011;19456;46.104;12.908;2022-07-15T19:02:20;7.68;;;4.03;;
33092;SDS011;19456;46.104;12.908;2022-07-15T19:04:45;10.32;;;4.25;;
33092;SDS011;19456;46.104;12.908;2022-07-15T19:07:11;19.25;;;4.97;;
33092;SDS011;19456;46.104;12.908;2022-07-15T19:09:36;5.10;;;3.95;;
33092;SDS011;19456;46.104;12.908;2022-07-15T19:12:02;8.90;;;4.10;;
33092;SDS011;19456;46.104;12.908;2022-07-15T19:14:28;25.92;;;5.00;;
33092;SDS011;19456;46.104;12.908;2022-07-15T19:16:54;21.73;;;5.90;;
33092;SDS011;19456;46.104;12.908;2022-07-15T19:19:19;21.88;;;6.30;;
33092;SDS011;19456;46.104;12.908;2022-07-15T19:21:45;15.75;;;6.03;;
33092;SDS011;19456;46.104;12.908;2022-07-15T19:24:11;15.73;;;6.03;;
33092;SDS011;19456;46.104;12.908;2022-07-15T19:26:37;17.23;;;6.35;;
33092;SDS011;19456;46.104;12.908;2022-07-15T19:29:02;17.77;;;6.00;;
33092;SDS011;19456;46.104;12.908;2022-07-15T19:31:28;13.27;;;6.00;;
33092;SDS011;19456;46.104;12.908;2022-07-15T19:33:54;13.35;;;5.72;;
33092;SDS011;19456;46.104;12.908;2022-07-15T19:36:20;10.63;;;5.22;;
33092;SDS011;19456;46.104;12.908;2022-07-15T19:38:45;7.80;;;5.10;;
33092;SDS011;19456;46.104;12.908;2022-07-15T19:41:13;12.20;;;4.82;;
33092;SDS011;19456;46.104;12.908;2022-07-15T19:43:39;13.48;;;5.13;;
33092;SDS011;19456;46.104;12.908;2022-07-15T19:46:04;10.85;;;5.20;;
33092;SDS011;19456;46.104;12.908;2022-07-15T19:48:30;9.55;;;4.78;;
33092;SDS011;19456;46.104;12.908;2022-07-15T19:50:56;12.23;;;4.55;;
33092;SDS011;19456;46.104;12.908;2022-07-15T19:53:22;8.27;;;4.93;;
33092;SDS011;19456;46.104;12.908;2022-07-15T19:55:47;6.97;;;4.70;;
33092;SDS011;19456;46.104;12.908;2022-07-15T19:58:13;9.00;;;4.43;;
33092;SDS011;19456;46.104;12.908;2022-07-15T20:00:39;10.18;;;4.18;;
33092;SDS011;19456;46.104;12.908;2022-07-15T20:03:06;13.25;;;5.00;;
33092;SDS011;19456;46.104;12.908;2022-07-15T20:05:33;10.93;;;4.50;;
33092;SDS011;19456;46.104;12.908;2022-07-15T20:08:00;5.30;;;4.22;;
33092;SDS011;19456;46.104;12.908;2022-07-15T20:10:26;9.90;;;4.38;;
33092;SDS011;19456;46.104;12.908;2022-07-15T20:12:52;11.05;;;4.40;;
33092;SDS011;19456;46.104;12.908;2022-07-15T20:15:18;9.48;;;5.07;;
33092;SDS011;19456;46.104;12.908;2022-07-15T20:17:45;9.35;;;4.03;;
33092;SDS011;19456;46.104;12.908;2022-07-15T20:20:12;12.52;;;4.40;;
33092;SDS011;19456;46.104;12.908;2022-07-15T20:22:40;9.07;;;4.38;;
33092;SDS011;19456;46.104;12.908;2022-07-15T20:25:06;9.52;;;4.75;;
33092;SDS011;19456;46.104;12.908;2022-07-15T20:27:32;10.27;;;4.55;;
33092;SDS011;19456;46.104;12.908;2022-07-15T20:29:58;12.65;;;5.15;;
33092;SDS011;19456;46.104;12.908;2022-07-15T20:32:24;10.20;;;5.05;;
33092;SDS011;19456;46.104;12.908;2022-07-15T20:34:50;13.45;;;4.93;;
33092;SDS011;19456;46.104;12.908;2022-07-15T20:37:16;9.55;;;4.50;;
33092;SDS011;19456;46.104;12.908;2022-07-15T20:39:41;5.55;;;4.35;;
33092;SDS011;19456;46.104;12.908;2022-07-15T20:42:07;4.32;;;3.75;;
33092;SDS011;19456;46.104;12.908;2022-07-15T20:44:33;12.80;;;4.38;;
33092;SDS011;19456;46.104;12.908;2022-07-15T20:46:58;9.43;;;4.15;;
33092;SDS011;19456;46.104;12.908;2022-07-15T20:49:25;8.45;;;4.20;;
33092;SDS011;19456;46.104;12.908;2022-07-15T20:51:50;8.25;;;4.65;;
33092;SDS011;19456;46.104;12.908;2022-07-15T20:54:16;6.78;;;4.32;;
33092;SDS011;19456;46.104;12.908;2022-07-15T20:56:42;8.13;;;4.55;;
33092;SDS011;19456;46.104;12.908;2022-07-15T20:59:07;6.45;;;3.90;;
33092;SDS011;19456;46.104;12.908;2022-07-15T21:01:33;5.65;;;4.00;;
33092;SDS011;19456;46.104;12.908;2022-07-15T21:04:00;8.50;;;4.25;;
33092;SDS011;19456;46.104;12.908;2022-07-15T21:06:26;6.05;;;4.43;;
33092;SDS011;19456;46.104;12.908;2022-07-15T21:08:52;5.57;;;4.53;;
33092;SDS011;19456;46.104;12.908;2022-07-15T21:11:19;7.07;;;4.80;;
33092;SDS011;19456;46.104;12.908;2022-07-15T21:13:45;11.98;;;5.05;;
33092;SDS011;19456;46.104;12.908;2022-07-15T21:16:10;6.75;;;4.70;;
33092;SDS011;19456;46.104;12.908;2022-07-15T21:18:37;5.43;;;4.55;;
33092;SDS011;19456;46.104;12.908;2022-07-15T21:21:03;9.18;;;4.78;;
33092;SDS011;19456;46.104;12.908;2022-07-15T21:23:29;7.80;;;4.68;;
33092;SDS011;19456;46.104;12.908;2022-07-15T21:25:55;7.25;;;4.88;;
33092;SDS011;19456;46.104;12.908;2022-07-15T21:28:39;5.07;;;4.53;;
33092;SDS011;19456;46.104;12.908;2022-07-15T21:31:05;7.47;;;4.43;;
33092;SDS011;19456;46.104;12.908;2022-07-15T21:33:31;5.60;;;4.40;;
33092;SDS011;19456;46.104;12.908;2022-07-15T21:35:56;7.72;;;4.55;;
33092;SDS011;19456;46.104;12.908;2022-07-15T21:38:22;7.20;;;4.80;;
33092;SDS011;19456;46.104;12.908;2022-07-15T21:40:48;12.40;;;4.60;;
33092;SDS011;19456;46.104;12.908;2022-07-15T21:43:13;10.00;;;4.38;;
33092;SDS011;19456;46.104;12.908;2022-07-15T21:45:39;7.40;;;4.93;;
33092;SDS011;19456;46.104;12.908;2022-07-15T21:48:06;5.72;;;4.35;;
33092;SDS011;19456;46.104;12.908;2022-07-15T21:50:32;9.30;;;4.80;;
33092;SDS011;19456;46.104;12.908;2022-07-15T21:52:57;7.80;;;5.10;;
33092;SDS011;19456;46.104;12.908;2022-07-15T21:55:23;6.63;;;4.60;;
33092;SDS011;19456;46.104;12.908;2022-07-15T21:57:49;6.60;;;4.68;;
33092;SDS011;19456;46.104;12.908;2022-07-15T22:00:15;5.90;;;4.20;;
33092;SDS011;19456;46.104;12.908;2022-07-15T22:02:42;5.75;;;4.47;;
33092;SDS011;19456;46.104;12.908;2022-07-15T22:05:09;6.38;;;4.47;;
33092;SDS011;19456;46.104;12.908;2022-07-15T22:07:38;7.90;;;4.38;;
33092;SDS011;19456;46.104;12.908;2022-07-15T22:10:05;5.15;;;4.30;;
33092;SDS011;19456;46.104;12.908;2022-07-15T22:12:32;6.50;;;4.75;;
33092;SDS011;19456;46.104;12.908;2022-07-15T22:14:58;9.88;;;4.85;;
33092;SDS011;19456;46.104;12.908;2022-07-15T22:17:24;6.07;;;5.00;;
33092;SDS011;19456;46.104;12.908;2022-07-15T22:19:50;6.68;;;5.07;;
33092;SDS011;19456;46.104;12.908;2022-07-15T22:22:16;7.43;;;5.40;;
33092;SDS011;19456;46.104;12.908;2022-07-15T22:24:42;9.35;;;6.15;;
33092;SDS011;19456;46.104;12.908;2022-07-15T22:27:08;6.97;;;6.07;;
33092;SDS011;19456;46.104;12.908;2022-07-15T22:29:34;7.72;;;6.05;;
33092;SDS011;19456;46.104;12.908;2022-07-15T22:32:00;9.18;;;6.68;;
33092;SDS011;19456;46.104;12.908;2022-07-15T22:34:45;11.63;;;7.00;;
33092;SDS011;19456;46.104;12.908;2022-07-15T22:37:12;9.18;;;7.13;;
33092;SDS011;19456;46.104;12.908;2022-07-15T22:39:39;12.75;;;6.95;;
33092;SDS011;19456;46.104;12.908;2022-07-15T22:42:06;9.38;;;6.72;;
33092;SDS011;19456;46.104;12.908;2022-07-15T22:44:32;8.50;;;7.70;;
33092;SDS011;19456;46.104;12.908;2022-07-15T22:46:58;8.38;;;7.15;;
33092;SDS011;19456;46.104;12.908;2022-07-15T22:49:24;10.32;;;7.60;;
33092;SDS011;19456;46.104;12.908;2022-07-15T22:51:50;8.82;;;6.75;;
33092;SDS011;19456;46.104;12.908;2022-07-15T22:54:16;10.35;;;7.30;;
33092;SDS011;19456;46.104;12.908;2022-07-15T22:56:41;10.13;;;7.10;;
33092;SDS011;19456;46.104;12.908;2022-07-15T22:59:07;11.00;;;6.28;;
33092;SDS011;19456;46.104;12.908;2022-07-15T23:01:33;7.60;;;6.82;;
33092;SDS011;19456;46.104;12.908;2022-07-15T23:03:59;7.25;;;6.53;;
33092;SDS011;19456;46.104;12.908;2022-07-15T23:06:25;7.80;;;6.32;;
33092;SDS011;19456;46.104;12.908;2022-07-15T23:08:50;7.53;;;6.70;;
33092;SDS011;19456;46.104;12.908;2022-07-15T23:11:16;7.32;;;6.57;;
33092;SDS011;19456;46.104;12.908;2022-07-15T23:13:42;8.80;;;7.22;;
33092;SDS011;19456;46.104;12.908;2022-07-15T23:16:07;12.82;;;7.70;;
33092;SDS011;19456;46.104;12.908;2022-07-15T23:18:33;8.45;;;7.20;;
33092;SDS011;19456;46.104;12.908;2022-07-15T23:21:01;9.57;;;6.82;;
33092;SDS011;19456;46.104;12.908;2022-07-15T23:23:27;10.18;;;7.18;;
33092;SDS011;19456;46.104;12.908;2022-07-15T23:25:53;9.82;;;7.50;;
33092;SDS011;19456;46.104;12.908;2022-07-15T23:28:19;8.15;;;7.32;;
33092;SDS011;19456;46.104;12.908;2022-07-15T23:30:44;8.95;;;8.05;;
33092;SDS011;19456;46.104;12.908;2022-07-15T23:33:10;8.82;;;7.55;;
33092;SDS011;19456;46.104;12.908;2022-07-15T23:35:36;9.13;;;7.60;;
33092;SDS011;19456;46.104;12.908;2022-07-15T23:38:02;8.00;;;7.30;;
33092;SDS011;19456;46.104;12.908;2022-07-15T23:40:27;10.13;;;6.68;;
33092;SDS011;19456;46.104;12.908;2022-07-15T23:42:53;11.77;;;7.00;;
33092;SDS011;19456;46.104;12.908;2022-07-15T23:45:19;7.88;;;6.65;;
33092;SDS011;19456;46.104;12.908;2022-07-15T23:47:44;10.52;;;7.35;;
33092;SDS011;19456;46.104;12.908;2022-07-15T23:50:10;10.93;;;7.22;;
33092;SDS011;19456;46.104;12.908;2022-07-15T23:52:36;8.90;;;7.18;;
33092;SDS011;19456;46.104;12.908;2022-07-15T23:55:04;7.85;;;7.05;;
33092;SDS011;19456;46.104;12.908;2022-07-15T23:57:29;9.20;;;7.22;;
33092;SDS011;19456;46.104;12.908;2022-07-15T23:59:55;8.60;;;6.95;;
